Quick Links (Output Below):   Max & Min Temps   /   Climate Reports   /   Zone Forecasts
River Forecasts   /   Forestry Forecasts   /   Aviation Forecasts   /   Radars   /   Features

Terminal Aerodrome Forecast (Jonesboro)

Pick a Site:
Arkadelphia | El Dorado | Fayetteville | Fort Smith | Harrison | Highfill | Hot Springs | Jonesboro
Little Rock | Monticello | Mountain Home | Pine Bluff | Texarkana
 Forecast 

KJBR 021132Z 0212/0312 00000KT P6SM SCT250
     FM021500 16006KT P6SM SCT050 BKN250
     FM030100 VRB02KT P6SM SCT250
      TEMPO 0308/0312 5SM BR=


 Latest METARs (Observations) 
How to Decode METARs
17Z KJBR 021653Z AUTO 03004KT 10SM CLR 31/21 A3009 RMK AO2 SLP186
         T03110211
         
16Z KJBR 021553Z AUTO VRB04KT 10SM CLR 29/22 A3010 RMK AO2 SLP190
         T02940217
         
15Z KJBR 021453Z AUTO 12004KT 10SM CLR 28/22 A3011 RMK AO2 SLP193
         T02780222 50002
         
14Z KJBR 021353Z AUTO 00000KT 10SM CLR 26/23 A3011 RMK AO2 SLP194
         T02560228
         
13Z KJBR 021253Z AUTO 00000KT 10SM CLR 23/22 A3011 RMK AO2 SLP194
         T02330222
         
12Z KJBR 021153Z AUTO 00000KT 3SM BR CLR 19/19 A3011 RMK AO2 SLP191
         T01940194 10228 20194 53012
         
11Z KJBR 021053Z AUTO 00000KT 10SM CLR 19/19 A3009 RMK AO2 SLP187
         T01940194
         
10Z KJBR 020953Z AUTO 00000KT 9SM CLR 20/20 A3007 RMK AO2 SLP179
         T02000200
         
09Z KJBR 020853Z AUTO 00000KT 10SM CLR 21/21 A3007 RMK AO2 SLP178
         T02110206 55002
         
08Z KJBR 020753Z AUTO 08003KT 10SM CLR 22/21 A3006 RMK AO2 SLP177
         T02220211
         
***** Today's Observations (Above) *****


Back to Main Page
http://www.srh.noaa.gov/lzk/qfcst.php

USA.gov is the U.S. government's official web portal to all federal, state and local government web resources and services.